Observation data for Seagraves on 04/22/2019      Previous  Date  Next       Current Mesonet Observations  Soil Data  Daily Summary Page  Observations in Plain Language
KSGV 220500Z 18012G17KT 19/02 A2992 RMK A01 T01940019  RH  032%=      5-min Rain = 0
KSGV 220505Z 19012KT 20/05 A2992 RMK A01 T02030046  RH  036%=      5-min Rain = 0
KSGV 220510Z 19011KT 20/06 A2992 RMK A01 T02000055  RH  039%=      5-min Rain = 0
KSGV 220515Z 19009KT 20/06 A2992 RMK A01 T01960063  RH  043%=      5-min Rain = 0
KSGV 220520Z 18010KT 20/07 A2992 RMK A01 T01960074  RH  046%=      5-min Rain = 0
KSGV 220525Z 18011KT 20/08 A2992 RMK A01 T02000084  RH  048%=      5-min Rain = 0
KSGV 220530Z 19012KT 20/09 A2992 RMK A01 T02020090  RH  050%=      5-min Rain = 0
KSGV 220535Z 19012KT 20/09 A2992 RMK A01 T02020092  RH  051%=      5-min Rain = 0
KSGV 220540Z 19012KT 20/10 A2992 RMK A01 T02020095  RH  052%=      5-min Rain = 0
KSGV 220545Z 19013KT 20/10 A2992 RMK A01 T02020097  RH  053%=      5-min Rain = 0
KSGV 220550Z 18012KT 20/10 A2992 RMK A01 T02000099  RH  054%=      5-min Rain = 0
KSGV 220555Z 18011KT 20/10 A2992 RMK A01 T01990102  RH  055%=      5-min Rain = 0
KSGV 220600Z 19013KT 20/10 A2992 RMK A01 T02000104  RH  056%=      5-min Rain = 0
KSGV 220605Z 19015G20KT 20/11 A2992 RMK A01 T02000106  RH  056%=      5-min Rain = 0
KSGV 220610Z 19014KT 20/11 A2992 RMK A01 T02000107  RH  057%=      5-min Rain = 0
KSGV 220615Z 19013KT 20/11 A2992 RMK A01 T01970107  RH  058%=      5-min Rain = 0
KSGV 220620Z 19012KT 19/11 A2992 RMK A01 T01940108  RH  059%=      5-min Rain = 0
KSGV 220625Z 19011KT 19/11 A2992 RMK A01 T01920108  RH  061%=      5-min Rain = 0
KSGV 220630Z 19011KT 19/11 A2992 RMK A01 T01890109  RH  062%=      5-min Rain = 0
KSGV 220635Z 19011KT 19/11 A2992 RMK A01 T01880110  RH  062%=      5-min Rain = 0
KSGV 220640Z 19011KT 19/11 A2992 RMK A01 T01880111  RH  063%=      5-min Rain = 0
KSGV 220645Z 18010KT 19/11 A2992 RMK A01 T01860110  RH  063%=      5-min Rain = 0
KSGV 220650Z 18008KT 18/11 A2992 RMK A01 T01830110  RH  065%=      5-min Rain = 0
KSGV 220655Z 18007KT 18/11 A2992 RMK A01 T01800110  RH  066%=      5-min Rain = 0
KSGV 220700Z 19007KT 18/11 A2993 RMK A01 T01780111  RH  067%=      5-min Rain = 0
KSGV 220705Z 18008KT 18/11 A2992 RMK A01 T01770112  RH  068%=      5-min Rain = 0
KSGV 220710Z 18009KT 18/11 A2992 RMK A01 T01770113  RH  069%=      5-min Rain = 0
KSGV 220715Z 18009KT 18/11 A2992 RMK A01 T01750114  RH  070%=      5-min Rain = 0
KSGV 220720Z 18009KT 17/11 A2992 RMK A01 T01740114  RH  070%=      5-min Rain = 0
KSGV 220725Z 19008KT 17/12 A2992 RMK A01 T01720115  RH  071%=      5-min Rain = 0
KSGV 220730Z 19008KT 17/12 A2992 RMK A01 T01690116  RH  073%=      5-min Rain = 0
KSGV 220735Z 19007KT 17/12 A2992 RMK A01 T01680116  RH  074%=      5-min Rain = 0
KSGV 220740Z 19007KT 17/12 A2992 RMK A01 T01660117  RH  076%=      5-min Rain = 0
KSGV 220745Z 19008KT 17/12 A2992 RMK A01 T01660119  RH  077%=      5-min Rain = 0
KSGV 220750Z 19008KT 17/12 A2992 RMK A01 T01670121  RH  077%=      5-min Rain = 0
KSGV 220755Z 19008KT 17/12 A2991 RMK A01 T01660122  RH  078%=      5-min Rain = 0
KSGV 220800Z 19008KT 17/12 A2991 RMK A01 T01670124  RH  079%=      5-min Rain = 0
KSGV 220805Z 19008KT 17/12 A2991 RMK A01 T01670124  RH  079%=      5-min Rain = 0
KSGV 220810Z 19008KT 17/12 A2991 RMK A01 T01660124  RH  079%=      5-min Rain = 0
KSGV 220815Z 19008KT 17/12 A2991 RMK A01 T01650124  RH  080%=      5-min Rain = 0
KSGV 220820Z 19007KT 16/12 A2992 RMK A01 T01630124  RH  081%=      5-min Rain = 0
KSGV 220825Z 19007KT 16/12 A2992 RMK A01 T01620124  RH  081%=      5-min Rain = 0
KSGV 220830Z 19007KT 16/12 A2991 RMK A01 T01620124  RH  082%=      5-min Rain = 0
KSGV 220835Z 19007KT 16/12 A2991 RMK A01 T01610124  RH  082%=      5-min Rain = 0
KSGV 220840Z 20006KT 16/12 A2992 RMK A01 T01590124  RH  083%=      5-min Rain = 0
KSGV 220845Z 19005KT 16/12 A2992 RMK A01 T01570123  RH  083%=      5-min Rain = 0
KSGV 220850Z 18004KT 15/12 A2991 RMK A01 T01540120  RH  084%=      5-min Rain = 0
KSGV 220855Z 19002KT 15/12 A2991 RMK A01 T01510120  RH  085%=      5-min Rain = 0
KSGV 220900Z 17002KT 15/12 A2991 RMK A01 T01510121  RH  085%=      5-min Rain = 0
KSGV 220905Z 17001KT 15/12 A2991 RMK A01 T01510121  RH  085%=      5-min Rain = 0
KSGV 220910Z 17000KT 15/12 A2991 RMK A01 T01500121  RH  086%=      5-min Rain = 0
KSGV 220915Z 17000KT 15/12 A2991 RMK A01 T01490121  RH  086%=      5-min Rain = 0
KSGV 220920Z 20001KT 15/12 A2991 RMK A01 T01480120  RH  087%=      5-min Rain = 0
KSGV 220925Z 18004KT 15/12 A2991 RMK A01 T01470120  RH  087%=      5-min Rain = 0
KSGV 220930Z 18004KT 15/12 A2991 RMK A01 T01460119  RH  087%=      5-min Rain = 0
KSGV 220935Z 19003KT 14/12 A2991 RMK A01 T01430117  RH  088%=      5-min Rain = 0
KSGV 220940Z 17003KT 15/12 A2991 RMK A01 T01450121  RH  089%=      5-min Rain = 0
KSGV 220945Z 16002KT 15/12 A2991 RMK A01 T01480121  RH  088%=      5-min Rain = 0
KSGV 220950Z 15003KT 15/12 A2991 RMK A01 T01470120  RH  087%=      5-min Rain = 0
KSGV 220955Z 15003KT 15/12 A2992 RMK A01 T01460119  RH  087%=      5-min Rain = 0
KSGV 221000Z 14001KT 14/12 A2992 RMK A01 T01440118  RH  087%=      5-min Rain = 0
KSGV 221005Z 13002KT 14/11 A2992 RMK A01 T01360108  RH  086%=      5-min Rain = 0
KSGV 221010Z 13002KT 13/11 A2992 RMK A01 T01320109  RH  089%=      5-min Rain = 0
KSGV 221015Z 14003KT 13/11 A2992 RMK A01 T01320113  RH  092%=      5-min Rain = 0
KSGV 221020Z 14003KT 13/12 A2992 RMK A01 T01340117  RH  092%=      5-min Rain = 0
KSGV 221025Z 12003KT 14/12 A2992 RMK A01 T01390120  RH  091%=      5-min Rain = 0
KSGV 221030Z 12002KT 14/12 A2992 RMK A01 T01400117  RH  089%=      5-min Rain = 0
KSGV 221035Z 13003KT 14/12 A2992 RMK A01 T01380117  RH  090%=      5-min Rain = 0
KSGV 221040Z 12003KT 14/12 A2992 RMK A01 T01370117  RH  091%=      5-min Rain = 0
KSGV 221045Z 11003KT 14/12 A2993 RMK A01 T01380118  RH  091%=      5-min Rain = 0
KSGV 221050Z 10003KT 14/12 A2993 RMK A01 T01400119  RH  091%=      5-min Rain = 0
KSGV 221055Z 10002KT 14/12 A2993 RMK A01 T01400119  RH  090%=      5-min Rain = 0
KSGV 221100Z 10003KT 14/12 A2993 RMK A01 T01400118  RH  090%=      5-min Rain = 0
KSGV 221105Z 09003KT 14/12 A2993 RMK A01 T01400118  RH  090%=      5-min Rain = 0
KSGV 221110Z 10003KT 14/12 A2993 RMK A01 T01390116  RH  090%=      5-min Rain = 0
KSGV 221115Z 11003KT 14/12 A2993 RMK A01 T01380117  RH  090%=      5-min Rain = 0
KSGV 221120Z 11002KT 14/12 A2994 RMK A01 T01380118  RH  091%=      5-min Rain = 0
KSGV 221125Z 26002KT 13/10 A2994 RMK A01 T01260104  RH  089%=      5-min Rain = 0
KSGV 221130Z 13001KT 12/10 A2994 RMK A01 T01210104  RH  092%=      5-min Rain = 0
KSGV 221135Z 14002KT 12/11 A2994 RMK A01 T01220107  RH  094%=      5-min Rain = 0
KSGV 221140Z 14003KT 12/11 A2994 RMK A01 T01230108  RH  094%=      5-min Rain = 0
KSGV 221145Z 14003KT 12/11 A2994 RMK A01 T01230107  RH  093%=      5-min Rain = 0
KSGV 221150Z 12004KT 13/12 A2994 RMK A01 T01300116  RH  094%=      5-min Rain = 0
KSGV 221155Z 13003KT 14/12 A2994 RMK A01 T01350118  RH  093%=      5-min Rain = 0
KSGV 221200Z 13004KT 14/12 A2994 RMK A01 T01350116  RH  092%=      5-min Rain = 0
KSGV 221205Z 14004KT 13/12 A2994 RMK A01 T01340115  RH  092%=      5-min Rain = 0
KSGV 221210Z 15004KT 13/12 A2994 RMK A01 T01330115  RH  092%=      5-min Rain = 0
KSGV 221215Z 16003KT 13/11 A2994 RMK A01 T01320114  RH  093%=      5-min Rain = 0
KSGV 221220Z 15003KT 13/11 A2995 RMK A01 T01300113  RH  093%=      5-min Rain = 0
KSGV 221225Z 12002KT 13/12 A2995 RMK A01 T01330117  RH  094%=      5-min Rain = 0
KSGV 221230Z 12002KT 14/12 A2995 RMK A01 T01370119  RH  093%=      5-min Rain = 0
KSGV 221235Z 28001KT 13/11 A2996 RMK A01 T01330113  RH  091%=      5-min Rain = 0
KSGV 221240Z 29001KT 13/11 A2996 RMK A01 T01260109  RH  093%=      5-min Rain = 0
KSGV 221245Z 00000KT 13/11 A2996 RMK A01 T01250110  RH  094%=      5-min Rain = 0
KSGV 221250Z 29000KT 13/11 A2996 RMK A01 T01270112  RH  094%=      5-min Rain = 0
KSGV 221255Z 30001KT 13/11 A2996 RMK A01 T01280112  RH  093%=      5-min Rain = 0
KSGV 221300Z 30000KT 13/11 A2996 RMK A01 T01300114  RH  094%=      5-min Rain = 0
KSGV 221305Z 05001KT 13/12 A2997 RMK A01 T01320117  RH  094%=      5-min Rain = 0
KSGV 221310Z 03005KT 14/12 A2998 RMK A01 T01370121  RH  094%=      5-min Rain = 0
KSGV 221315Z 01011G16KT 14/12 A2999 RMK A01 T01410121  RH  091%=      5-min Rain = 0
KSGV 221320Z 01007KT 14/12 A30 RMK A01 T01410120  RH  091%=      5-min Rain = 0
KSGV 221325Z 00010KT 15/12 A30 RMK A01 T01450123  RH  090%=      5-min Rain = 0
KSGV 221330Z 02007KT 15/12 A30 RMK A01 T01490124  RH  088%=      5-min Rain = 0
KSGV 221335Z 02008KT 15/13 A30 RMK A01 T01520125  RH  087%=      5-min Rain = 0
KSGV 221340Z 01008KT 15/13 A30 RMK A01 T01540125  RH  086%=      5-min Rain = 0
KSGV 221345Z 01008KT 16/13 A3001 RMK A01 T01560125  RH  085%=      5-min Rain = 0
KSGV 221350Z 01008KT 16/13 A3001 RMK A01 T01580126  RH  084%=      5-min Rain = 0
KSGV 221355Z 01008KT 16/13 A3001 RMK A01 T01610126  RH  083%=      5-min Rain = 0
KSGV 221400Z 03010G15KT 16/13 A30 RMK A01 T01630126  RH  082%=      5-min Rain = 0
KSGV 221405Z 03009KT 17/13 A30 RMK A01 T01660126  RH  081%=      5-min Rain = 0
KSGV 221410Z 02007KT 17/13 A3001 RMK A01 T01690127  RH  079%=      5-min Rain = 0
KSGV 221415Z 02008KT 17/13 A3001 RMK A01 T01720127  RH  077%=      5-min Rain = 0
KSGV 221420Z 03006G11KT 17/13 A3001 RMK A01 T01740127  RH  077%=      5-min Rain = 0
KSGV 221425Z 03008KT 18/13 A30 RMK A01 T01770127  RH  076%=      5-min Rain = 0
KSGV 221430Z 03007KT 18/13 A30 RMK A01 T01810128  RH  074%=      5-min Rain = 0
KSGV 221435Z 03008G13KT 18/13 A30 RMK A01 T01840127  RH  072%=      5-min Rain = 0
KSGV 221440Z 03009KT 18/13 A30 RMK A01 T01840126  RH  072%=      5-min Rain = 0
KSGV 221445Z 02008KT 19/13 A30 RMK A01 T01890129  RH  071%=      5-min Rain = 0
KSGV 221450Z 02010KT 19/13 A2999 RMK A01 T01920128  RH  069%=      5-min Rain = 0
KSGV 221455Z 03008KT 19/13 A2999 RMK A01 T01940129  RH  068%=      5-min Rain = 0
KSGV 221500Z 04007KT 20/13 A2999 RMK A01 T01970128  RH  067%=      5-min Rain = 0
KSGV 221505Z 02009KT 20/13 A30 RMK A01 T01950126  RH  067%=      5-min Rain = 0
KSGV 221510Z 03009KT 20/13 A30 RMK A01 T01950125  RH  067%=      5-min Rain = 0
KSGV 221515Z 01008KT 20/13 A30 RMK A01 T01970126  RH  066%=      5-min Rain = 0
KSGV 221520Z 02007KT 20/13 A3001 RMK A01 T01980125  RH  065%=      5-min Rain = 0
KSGV 221525Z 02006KT 20/12 A3001 RMK A01 T01980124  RH  065%=      5-min Rain = 0
KSGV 221530Z 02007KT 20/12 A3001 RMK A01 T01980124  RH  065%=      5-min Rain = 0
KSGV 221535Z 01010KT 20/12 A30 RMK A01 T01950118  RH  063%=      5-min Rain = 0
KSGV 221540Z 02009KT 20/12 A30 RMK A01 T01970120  RH  063%=      5-min Rain = 0
KSGV 221545Z 02010KT 20/12 A30 RMK A01 T02000120  RH  062%=      5-min Rain = 0
KSGV 221550Z 02009KT 20/12 A30 RMK A01 T01990119  RH  062%=      5-min Rain = 0
KSGV 221555Z 01011KT 20/11 A30 RMK A01 T01970105  RH  057%=      5-min Rain = 0
KSGV 221600Z 01012G17KT 20/10 A30 RMK A01 T01950103  RH  057%=      5-min Rain = 0
KSGV 221605Z 02012G17KT 19/10 A30 RMK A01 T01940099  RH  056%=      5-min Rain = 0
KSGV 221610Z 01012G18KT 19/09 A3001 RMK A01 T01940094  RH  054%=      5-min Rain = 0
KSGV 221615Z 01015G20KT 19/09 A3001 RMK A01 T01930093  RH  054%=      5-min Rain = 0
KSGV 221620Z 01013KT 19/09 A30 RMK A01 T01920092  RH  054%=      5-min Rain = 0
KSGV 221625Z 02013KT 19/09 A3001 RMK A01 T01920093  RH  054%=      5-min Rain = 0
KSGV 221630Z 02011G16KT 19/09 A3001 RMK A01 T01920094  RH  055%=      5-min Rain = 0
KSGV 221635Z 02012KT 19/10 A3001 RMK A01 T01930096  RH  055%=      5-min Rain = 0
KSGV 221640Z 02011KT 20/10 A3002 RMK A01 T01960098  RH  055%=      5-min Rain = 0
KSGV 221645Z 03011KT 20/10 A3002 RMK A01 T01970098  RH  055%=      5-min Rain = 0
KSGV 221650Z 03010G15KT 20/10 A3002 RMK A01 T01960100  RH  055%=      5-min Rain = 0
KSGV 221655Z 03010G15KT 20/10 A3001 RMK A01 T01990104  RH  056%=      5-min Rain = 0
KSGV 221700Z 03010G15KT 20/10 A3001 RMK A01 T02000104  RH  056%=      5-min Rain = 0
KSGV 221705Z 03012KT 20/10 A3002 RMK A01 T02000103  RH  055%=      5-min Rain = 0
KSGV 221710Z 03009G14KT 20/11 A3002 RMK A01 T02040105  RH  055%=      5-min Rain = 0
KSGV 221715Z 04011G17KT 20/11 A3002 RMK A01 T02030105  RH  055%=      5-min Rain = 0
KSGV 221720Z 05009G14KT 20/11 A3002 RMK A01 T02030106  RH  056%=      5-min Rain = 0
KSGV 221725Z 04009KT 20/11 A3002 RMK A01 T02040107  RH  056%=      5-min Rain = 0
KSGV 221730Z 04010G15KT 21/11 A3002 RMK A01 T02070111  RH  056%=      5-min Rain = 0
KSGV 221735Z 05009G14KT 21/12 A3002 RMK A01 T02080117  RH  058%=      5-min Rain = 0
KSGV 221740Z 05009KT 21/12 A3002 RMK A01 T02100122  RH  060%=      5-min Rain = 0
KSGV 221745Z 04010KT 21/13 A3002 RMK A01 T02130125  RH  059%=      5-min Rain = 0
KSGV 221750Z 05010G16KT 21/12 A3002 RMK A01 T02100124  RH  060%=      5-min Rain = 0
KSGV 221755Z 05009G14KT 21/13 A3002 RMK A01 T02100125  RH  061%=      5-min Rain = 0
KSGV 221800Z 05008G14KT 21/13 A3002 RMK A01 T02110126  RH  060%=      5-min Rain = 0
KSGV 221805Z 04009G14KT 21/13 A3002 RMK A01 T02110126  RH  061%=      5-min Rain = 0
KSGV 221810Z 05010G15KT 21/13 A3001 RMK A01 T02130128  RH  061%=      5-min Rain = 0
KSGV 221815Z 05008G15KT 21/13 A3002 RMK A01 T02100128  RH  061%=      5-min Rain = 0
KSGV 221820Z 06007KT 21/13 A3002 RMK A01 T02110129  RH  062%=      5-min Rain = 0
KSGV 221825Z 07007KT 21/13 A3003 RMK A01 T02120129  RH  062%=      5-min Rain = 0
KSGV 221830Z 07007KT 21/13 A3003 RMK A01 T02100130  RH  062%=      5-min Rain = 0
KSGV 221835Z 06006KT 21/13 A3003 RMK A01 T02100130  RH  063%=      5-min Rain = 0
KSGV 221840Z 06007G12KT 21/13 A3003 RMK A01 T02110131  RH  063%=      5-min Rain = 0
KSGV 221845Z 06007KT 21/13 A3003 RMK A01 T02110131  RH  063%=      5-min Rain = 0
KSGV 221850Z 04007G12KT 21/13 A3002 RMK A01 T02130132  RH  063%=      5-min Rain = 0
KSGV 221855Z 09005KT 22/13 A3002 RMK A01 T02150134  RH  062%=      5-min Rain = 0
KSGV 221900Z 07007KT 21/13 A3002 RMK A01 T02140134  RH  063%=      5-min Rain = 0
KSGV 221905Z 09006KT 21/14 A3002 RMK A01 T02130135  RH  064%=      5-min Rain = 0
KSGV 221910Z 10007KT 21/13 A3003 RMK A01 T02110134  RH  064%=      5-min Rain = 0
KSGV 221915Z 09007G12KT 21/13 A3002 RMK A01 T02100134  RH  064%=      5-min Rain = 0
KSGV 221920Z 09005KT 21/14 A3002 RMK A01 T02120136  RH  065%=      5-min Rain = 0
KSGV 221925Z 07007KT 21/13 A3001 RMK A01 T02120134  RH  064%=      5-min Rain = 0
KSGV 221930Z 07007G12KT 21/14 A30 RMK A01 T02140137  RH  064%=      5-min Rain = 0
KSGV 221935Z 07007KT 22/14 A3001 RMK A01 T02150137  RH  063%=      5-min Rain = 0
KSGV 221940Z 09007G12KT 21/14 A3001 RMK A01 T02110137  RH  065%=      5-min Rain = 0
KSGV 221945Z 08007KT 21/14 A3001 RMK A01 T02100137  RH  066%=      5-min Rain = 0
KSGV 221950Z 07008KT 21/14 A30 RMK A01 T02090137  RH  066%=      5-min Rain = 0
KSGV 221955Z 05006G11KT 21/14 A30 RMK A01 T02090137  RH  066%=      5-min Rain = 0
KSGV 222000Z 07008KT 21/14 A3001 RMK A01 T02100137  RH  066%=      5-min Rain = 0
KSGV 222005Z 06008KT 21/14 A30 RMK A01 T02080136  RH  066%=      5-min Rain = 0
KSGV 222010Z 09007KT 21/14 A3001 RMK A01 T02070137  RH  067%=      5-min Rain = 0
KSGV 222015Z 07008G13KT 21/14 A30 RMK A01 T02050136  RH  067%=      5-min Rain = 0
KSGV 222020Z 05008G13KT 21/14 A30 RMK A01 T02060137  RH  067%=      5-min Rain = 0
KSGV 222025Z 08006G11KT 21/14 A3001 RMK A01 T02050137  RH  067%=      5-min Rain = 0
KSGV 222030Z 09007KT 20/14 A3002 RMK A01 T02040137  RH  068%=      5-min Rain = 0
KSGV 222035Z 09006KT 20/14 A3003 RMK A01 T02030136  RH  068%=      5-min Rain = 0
KSGV 222040Z 08008KT 21/14 A3003 RMK A01 T02050137  RH  068%=      5-min Rain = 0
KSGV 222045Z 10007KT 20/14 A3003 RMK A01 T02040138  RH  068%=      5-min Rain = 0
KSGV 222050Z 08007KT 20/14 A3003 RMK A01 T02030137  RH  069%=      5-min Rain = 0
KSGV 222055Z 07008KT 20/14 A3002 RMK A01 T02040138  RH  068%=      5-min Rain = 0
KSGV 222100Z 06006KT 21/14 A3002 RMK A01 T02060138  RH  068%=      5-min Rain = 0
KSGV 222105Z 06009KT 21/14 A3002 RMK A01 T02050137  RH  068%=      5-min Rain = 0
KSGV 222110Z 04009G14KT 20/14 A3002 RMK A01 T02010136  RH  069%=      5-min Rain = 0
KSGV 222115Z 05009KT 20/14 A3002 RMK A01 T02010135  RH  069%=      5-min Rain = 0
KSGV 222120Z 05009G14KT 20/14 A3002 RMK A01 T02010136  RH  069%=      5-min Rain = 0
KSGV 222125Z 06010KT 20/14 A3002 RMK A01 T02000135  RH  069%=      5-min Rain = 0
KSGV 222130Z 06009KT 20/13 A3002 RMK A01 T01990134  RH  069%=      5-min Rain = 0
KSGV 222135Z 05008KT 20/13 A3002 RMK A01 T01990134  RH  069%=      5-min Rain = 0
KSGV 222140Z 04010G17KT 20/13 A3001 RMK A01 T02000134  RH  068%=      5-min Rain = 0
KSGV 222145Z 05010G16KT 20/13 A30 RMK A01 T01990133  RH  068%=      5-min Rain = 0
KSGV 222150Z 04010G15KT 20/13 A30 RMK A01 T01980134  RH  069%=      5-min Rain = 0
KSGV 222155Z 04010G17KT 20/14 A30 RMK A01 T01960135  RH  070%=      5-min Rain = 0
KSGV 222200Z 04011G16KT 19/13 A30 RMK A01 T01940134  RH  071%=      5-min Rain = 0
KSGV 222205Z 05009G15KT 19/13 A30 RMK A01 T01930132  RH  071%=      5-min Rain = 0
KSGV 222210Z 05011G18KT 19/13 A30 RMK A01 T01930130  RH  069%=      5-min Rain = 0
KSGV 222215Z 05011G18KT 20/13 A30 RMK A01 T01950128  RH  068%=      5-min Rain = 0
KSGV 222220Z 06011G17KT 20/13 A30 RMK A01 T01970128  RH  067%=      5-min Rain = 0
KSGV 222225Z 06012G19KT 20/13 A30 RMK A01 T01950126  RH  067%=      5-min Rain = 0
KSGV 222230Z 07011G19KT 19/13 A30 RMK A01 T01940126  RH  067%=      5-min Rain = 0
KSGV 222235Z 06011G18KT 19/13 A30 RMK A01 T01940125  RH  067%=      5-min Rain = 0
KSGV 222240Z 06012G18KT 19/12 A30 RMK A01 T01940123  RH  066%=      5-min Rain = 0
KSGV 222245Z 06011G18KT 19/12 A30 RMK A01 T01940123  RH  066%=      5-min Rain = 0
KSGV 222250Z 06012G21KT 20/12 A30 RMK A01 T01960122  RH  065%=      5-min Rain = 0
KSGV 222255Z 07015G21KT 19/12 A2999 RMK A01 T01940121  RH  065%=      5-min Rain = 0
KSGV 222300Z 06013G19KT 20/12 A2999 RMK A01 T01960122  RH  065%=      5-min Rain = 0
KSGV 222305Z 06014G19KT 20/12 A2999 RMK A01 T01950122  RH  065%=      5-min Rain = 0
KSGV 222310Z 06013G20KT 19/12 A30 RMK A01 T01930121  RH  065%=      5-min Rain = 0
KSGV 222315Z 06012G18KT 19/12 A2999 RMK A01 T01910120  RH  066%=      5-min Rain = 0
KSGV 222320Z 05012G18KT 19/12 A2999 RMK A01 T01900120  RH  066%=      5-min Rain = 0
KSGV 222325Z 05011G17KT 19/12 A30 RMK A01 T01880119  RH  067%=      5-min Rain = 0
KSGV 222330Z 05011G18KT 18/12 A3001 RMK A01 T01840123  RH  070%=      5-min Rain = 0
KSGV 222335Z 05009G15KT 18/13 A3002 RMK A01 T01790126  RH  074%=      5-min Rain = 0
KSGV 222340Z 06009G14KT 18/13 A3002 RMK A01 T01770127  RH  075%=      5-min Rain = 0
KSGV 222345Z 06010G16KT 18/13 A3002 RMK A01 T01760127  RH  076%=      5-min Rain = 0
KSGV 222350Z 06009G14KT 17/13 A3001 RMK A01 T01740127  RH  077%=      5-min Rain = 0
KSGV 222355Z 07010G15KT 17/13 A3002 RMK A01 T01710129  RH  079%=      5-min Rain = 0.01
KSGV 230000Z 08010G16KT 17/13 A3002 RMK A01 T01670132  RH  083%=      5-min Rain = 0
KSGV 230005Z 06011G16KT 16/13 A3001 RMK A01 T01630132  RH  085%=      5-min Rain = 0.01
KSGV 230010Z 06011G17KT 16/13 A30 RMK A01 T01630132  RH  085%=      5-min Rain = 0
KSGV 230015Z 06010KT 16/13 A3001 RMK A01 T01620132  RH  086%=      5-min Rain = 0.01
KSGV 230020Z 06008G14KT 16/13 A3001 RMK A01 T01620132  RH  086%=      5-min Rain = 0
KSGV 230025Z 07007G13KT 16/13 A3003 RMK A01 T01620133  RH  087%=      5-min Rain = 0
KSGV 230030Z 06008G13KT 16/13 A3002 RMK A01 T01610134  RH  087%=      5-min Rain = 0.01
KSGV 230035Z 05009G15KT 16/13 A3002 RMK A01 T01600133  RH  088%=      5-min Rain = 0
KSGV 230040Z 04009G15KT 16/13 A3001 RMK A01 T01580133  RH  088%=      5-min Rain = 0
KSGV 230045Z 04009G15KT 16/13 A3001 RMK A01 T01570133  RH  089%=      5-min Rain = 0
KSGV 230050Z 04010G16KT 16/13 A3001 RMK A01 T01550131  RH  089%=      5-min Rain = 0
KSGV 230055Z 05009G16KT 15/13 A3001 RMK A01 T01540129  RH  089%=      5-min Rain = 0
KSGV 230100Z 05010G17KT 15/13 A3001 RMK A01 T01520128  RH  089%=      5-min Rain = 0
KSGV 230105Z 05010G17KT 15/13 A3001 RMK A01 T01520125  RH  088%=      5-min Rain = 0
KSGV 230110Z 05008G15KT 15/13 A3002 RMK A01 T01500125  RH  088%=      5-min Rain = 0
KSGV 230115Z 05011KT 15/12 A3002 RMK A01 T01490124  RH  088%=      5-min Rain = 0
KSGV 230120Z 05010G15KT 15/12 A3002 RMK A01 T01490124  RH  088%=      5-min Rain = 0
KSGV 230125Z 05009G14KT 15/12 A3003 RMK A01 T01480124  RH  089%=      5-min Rain = 0
KSGV 230130Z 05007G13KT 15/12 A3002 RMK A01 T01470124  RH  090%=      5-min Rain = 0
KSGV 230135Z 06009G14KT 15/13 A3002 RMK A01 T01470125  RH  090%=      5-min Rain = 0
KSGV 230140Z 05010G17KT 15/12 A3002 RMK A01 T01470124  RH  089%=      5-min Rain = 0
KSGV 230145Z 06011G16KT 15/12 A3002 RMK A01 T01470122  RH  088%=      5-min Rain = 0
KSGV 230150Z 06011G17KT 15/12 A3001 RMK A01 T01470122  RH  088%=      5-min Rain = 0
KSGV 230155Z 06011G17KT 15/12 A3001 RMK A01 T01460122  RH  089%=      5-min Rain = 0
KSGV 230200Z 07010G17KT 15/12 A3002 RMK A01 T01450121  RH  089%=      5-min Rain = 0
KSGV 230205Z 06011G17KT 14/12 A3002 RMK A01 T01440120  RH  089%=      5-min Rain = 0
KSGV 230210Z 06011G18KT 15/12 A3002 RMK A01 T01450120  RH  088%=      5-min Rain = 0
KSGV 230215Z 06012G22KT 15/12 A3002 RMK A01 T01450120  RH  088%=      5-min Rain = 0
KSGV 230220Z 06012G19KT 15/12 A3002 RMK A01 T01450120  RH  089%=      5-min Rain = 0
KSGV 230225Z 06010G16KT 14/12 A3003 RMK A01 T01440121  RH  089%=      5-min Rain = 0
KSGV 230230Z 06008G14KT 14/12 A3003 RMK A01 T01430122  RH  091%=      5-min Rain = 0
KSGV 230235Z 06009G14KT 14/12 A3004 RMK A01 T01430122  RH  091%=      5-min Rain = 0
KSGV 230240Z 06009KT 14/12 A3003 RMK A01 T01430123  RH  091%=      5-min Rain = 0
KSGV 230245Z 06010G15KT 14/12 A3003 RMK A01 T01430122  RH  091%=      5-min Rain = 0
KSGV 230250Z 06011G17KT 14/12 A3003 RMK A01 T01430122  RH  090%=      5-min Rain = 0
KSGV 230255Z 06011G17KT 14/12 A3003 RMK A01 T01430122  RH  091%=      5-min Rain = 0
KSGV 230300Z 07010G17KT 14/12 A3003 RMK A01 T01420122  RH  091%=      5-min Rain = 0
KSGV 230305Z 06012G20KT 14/12 A3002 RMK A01 T01410122  RH  092%=      5-min Rain = 0
KSGV 230310Z 06010G17KT 14/12 A3003 RMK A01 T01410122  RH  092%=      5-min Rain = 0
KSGV 230315Z 07011G17KT 14/12 A3003 RMK A01 T01400122  RH  092%=      5-min Rain = 0
KSGV 230320Z 06010G15KT 14/12 A3003 RMK A01 T01400122  RH  093%=      5-min Rain = 0
KSGV 230325Z 06009G15KT 14/12 A3003 RMK A01 T01400123  RH  093%=      5-min Rain = 0
KSGV 230330Z 05008G14KT 14/12 A3003 RMK A01 T01390123  RH  093%=      5-min Rain = 0
KSGV 230335Z 06008G13KT 14/12 A3002 RMK A01 T01390123  RH  094%=      5-min Rain = 0
KSGV 230340Z 05009G14KT 14/12 A3001 RMK A01 T01380123  RH  094%=      5-min Rain = 0
KSGV 230345Z 06010G16KT 14/12 A3001 RMK A01 T01380124  RH  095%=      5-min Rain = 0
KSGV 230350Z 05008G13KT 14/12 A3001 RMK A01 T01380124  RH  095%=      5-min Rain = 0
KSGV 230355Z 05009G14KT 14/12 A3002 RMK A01 T01380124  RH  095%=      5-min Rain = 0
KSGV 230400Z 05009KT 14/13 A3002 RMK A01 T01390125  RH  095%=      5-min Rain = 0
KSGV 230405Z 05008G14KT 14/13 A3002 RMK A01 T01390125  RH  095%=      5-min Rain = 0
KSGV 230410Z 05008KT 14/13 A3002 RMK A01 T01400126  RH  095%=      5-min Rain = 0
KSGV 230415Z 05007G12KT 14/13 A3003 RMK A01 T01410126  RH  095%=      5-min Rain = 0
KSGV 230420Z 05008G14KT 14/13 A3003 RMK A01 T01410126  RH  095%=      5-min Rain = 0
KSGV 230425Z 05007KT 14/13 A3003 RMK A01 T01420127  RH  094%=      5-min Rain = 0
KSGV 230430Z 05007KT 14/13 A3003 RMK A01 T01420127  RH  094%=      5-min Rain = 0
KSGV 230435Z 05009G15KT 14/13 A3003 RMK A01 T01420127  RH  094%=      5-min Rain = 0
KSGV 230440Z 05009G14KT 14/13 A3003 RMK A01 T01420127  RH  094%=      5-min Rain = 0
KSGV 230445Z 04009KT 14/13 A3003 RMK A01 T01420127  RH  094%=      5-min Rain = 0
KSGV 230450Z 04007G13KT 14/13 A3004 RMK A01 T01430127  RH  094%=      5-min Rain = 0
KSGV 230455Z 04008G13KT 14/13 A3004 RMK A01 T01430127  RH  094%=      5-min Rain = 0

Page generated in 0.0093 seconds.